Terminal Aerodrome Forecast
Issued by NWS Cleveland, OH

Home | Current Version | Previous Version | Text Only | Print | Product List | Glossary On
Versions: 1 2 3 4 5 6 7 8 9 10 11 12 13 14 15
000
FTUS41 KCLE 290539
TAFMFD
TAF
KMFD 290539Z 2906/3006 18005KT P6SM BKN250
      TEMPO 2908/2912 4SM BR
     FM291400 20010KT P6SM SCT040 BKN250
     FM291800 20010G18KT P6SM SCT050 PROB30 2922/3001 5SM -TSRA BR
      BKN035CB
     FM300100 24007KT P6SM SCT100=

USA.gov is the U.S. government's official web portal to all federal, state and local government web resources and services.